sensor_id;sensor_type;location;lat;lon;timestamp;pressure;altitude;pressure_sealevel;temperature;humidity
69784;BME280;57054;51.978;4.498;2023-02-23T00:01:12;101333.47;;;7.45;100.00
69784;BME280;57054;51.978;4.498;2023-02-23T00:03:38;101336.94;;;7.44;100.00
69784;BME280;57054;51.978;4.498;2023-02-23T00:06:05;101334.34;;;7.44;100.00
69784;BME280;57054;51.978;4.498;2023-02-23T00:08:31;101330.88;;;7.43;100.00
69784;BME280;57054;51.978;4.498;2023-02-23T00:11:00;101339.56;;;7.44;100.00
69784;BME280;57054;51.978;4.498;2023-02-23T00:13:25;101336.09;;;7.43;100.00
69784;BME280;57054;51.978;4.498;2023-02-23T00:15:50;101328.28;;;7.43;100.00
69784;BME280;57054;51.978;4.498;2023-02-23T00:18:16;101331.75;;;7.44;100.00
69784;BME280;57054;51.978;4.498;2023-02-23T00:20:41;101329.13;;;7.44;100.00
69784;BME280;57054;51.978;4.498;2023-02-23T00:23:12;101341.31;;;7.43;100.00
69784;BME280;57054;51.978;4.498;2023-02-23T00:25:39;101334.34;;;7.44;100.00
69784;BME280;57054;51.978;4.498;2023-02-23T00:28:06;101334.41;;;7.42;100.00
69784;BME280;57054;51.978;4.498;2023-02-23T00:30:31;101335.25;;;7.43;100.00
69784;BME280;57054;51.978;4.498;2023-02-23T00:32:59;101335.25;;;7.43;100.00
69784;BME280;57054;51.978;4.498;2023-02-23T00:35:24;101339.63;;;7.42;100.00
69784;BME280;57054;51.978;4.498;2023-02-23T00:37:50;101337.84;;;7.43;100.00
69784;BME280;57054;51.978;4.498;2023-02-23T00:40:16;101330.88;;;7.43;100.00
69784;BME280;57054;51.978;4.498;2023-02-23T00:42:43;101322.22;;;7.43;100.00
69784;BME280;57054;51.978;4.498;2023-02-23T00:45:11;101329.19;;;7.42;100.00
69784;BME280;57054;51.978;4.498;2023-02-23T00:47:41;101330.03;;;7.43;100.00
69784;BME280;57054;51.978;4.498;2023-02-23T00:50:09;101323.97;;;7.42;100.00
69784;BME280;57054;51.978;4.498;2023-02-23T00:52:37;101324.81;;;7.43;100.00
69784;BME280;57054;51.978;4.498;2023-02-23T00:55:03;101324.81;;;7.43;100.00
69784;BME280;57054;51.978;4.498;2023-02-23T00:57:29;101323.97;;;7.42;100.00
69784;BME280;57054;51.978;4.498;2023-02-23T00:59:54;101324.84;;;7.41;100.00
69784;BME280;57054;51.978;4.498;2023-02-23T01:02:19;101329.19;;;7.42;100.00
69784;BME280;57054;51.978;4.498;2023-02-23T01:04:45;101329.19;;;7.42;100.00
69784;BME280;57054;51.978;4.498;2023-02-23T01:07:10;101326.59;;;7.41;100.00
69784;BME280;57054;51.978;4.498;2023-02-23T01:09:37;101335.28;;;7.41;100.00
69784;BME280;57054;51.978;4.498;2023-02-23T01:12:03;101333.53;;;7.42;100.00
69784;BME280;57054;51.978;4.498;2023-02-23T01:14:31;101332.66;;;7.41;100.00
69784;BME280;57054;51.978;4.498;2023-02-23T01:16:57;101334.44;;;7.41;100.00
69784;BME280;57054;51.978;4.498;2023-02-23T01:19:22;101340.50;;;7.41;100.00
69784;BME280;57054;51.978;4.498;2023-02-23T01:21:48;101335.28;;;7.41;100.00
69784;BME280;57054;51.978;4.498;2023-02-23T01:24:14;101333.53;;;7.40;100.00
69784;BME280;57054;51.978;4.498;2023-02-23T01:26:41;101333.53;;;7.42;100.00
69784;BME280;57054;51.978;4.498;2023-02-23T01:29:12;101331.81;;;7.41;100.00
69784;BME280;57054;51.978;4.498;2023-02-23T01:31:40;101345.69;;;7.41;100.00
69784;BME280;57054;51.978;4.498;2023-02-23T01:34:06;101337.91;;;7.40;100.00
69784;BME280;57054;51.978;4.498;2023-02-23T01:36:34;101336.16;;;7.40;100.00
69784;BME280;57054;51.978;4.498;2023-02-23T01:39:00;101334.44;;;7.41;100.00
69784;BME280;57054;51.978;4.498;2023-02-23T01:41:28;101343.09;;;7.41;100.00
69784;BME280;57054;51.978;4.498;2023-02-23T01:46:55;101335.31;;;7.40;100.00
69784;BME280;57054;51.978;4.498;2023-02-23T01:49:27;101340.50;;;7.40;100.00
69784;BME280;57054;51.978;4.498;2023-02-23T01:52:10;101340.50;;;7.40;100.00
69784;BME280;57054;51.978;4.498;2023-02-23T01:54:44;101343.13;;;7.40;100.00
69784;BME280;57054;51.978;4.498;2023-02-23T01:57:15;101335.31;;;7.40;100.00
69784;BME280;57054;51.978;4.498;2023-02-23T01:59:45;101342.28;;;7.39;100.00
69784;BME280;57054;51.978;4.498;2023-02-23T02:05:03;101341.41;;;7.39;100.00
69784;BME280;57054;51.978;4.498;2023-02-23T02:07:30;101348.34;;;7.38;100.00
69784;BME280;57054;51.978;4.498;2023-02-23T02:09:59;101352.72;;;7.38;100.00
69784;BME280;57054;51.978;4.498;2023-02-23T02:12:40;101347.50;;;7.38;100.00
69784;BME280;57054;51.978;4.498;2023-02-23T02:15:09;101356.19;;;7.38;100.00
69784;BME280;57054;51.978;4.498;2023-02-23T02:26:16;101350.97;;;7.38;100.00
69784;BME280;57054;51.978;4.498;2023-02-23T02:36:58;101342.31;;;7.36;100.00
69784;BME280;57054;51.978;4.498;2023-02-23T02:42:50;101342.31;;;7.36;100.00
69784;BME280;57054;51.978;4.498;2023-02-23T02:51:10;101333.69;;;7.34;100.00
69784;BME280;57054;51.978;4.498;2023-02-23T02:56:13;101338.91;;;7.33;100.00
69784;BME280;57054;51.978;4.498;2023-02-23T02:58:44;101337.22;;;7.32;100.00
69784;BME280;57054;51.978;4.498;2023-02-23T03:01:14;101345.03;;;7.32;100.00
69784;BME280;57054;51.978;4.498;2023-02-23T03:04:03;101345.03;;;7.32;100.00
69784;BME280;57054;51.978;4.498;2023-02-23T03:07:19;101338.94;;;7.31;100.00
69784;BME280;57054;51.978;4.498;2023-02-23T03:19:29;101332.06;;;7.28;100.00
69784;BME280;57054;51.978;4.498;2023-02-23T03:22:25;101342.47;;;7.28;100.00
69784;BME280;57054;51.978;4.498;2023-02-23T03:25:15;101337.25;;;7.28;100.00
69784;BME280;57054;51.978;4.498;2023-02-23T03:28:18;101348.53;;;7.29;100.00
69784;BME280;57054;51.978;4.498;2023-02-23T03:31:25;101352.03;;;7.28;100.00
69784;BME280;57054;51.978;4.498;2023-02-23T03:37:08;101350.28;;;7.28;100.00
69784;BME280;57054;51.978;4.498;2023-02-23T03:40:00;101354.66;;;7.28;100.00
69784;BME280;57054;51.978;4.498;2023-02-23T03:42:49;101351.13;;;7.29;100.00
69784;BME280;57054;51.978;4.498;2023-02-23T03:45:35;101353.75;;;7.29;100.00
69784;BME280;57054;51.978;4.498;2023-02-23T03:48:22;101351.13;;;7.29;100.00
69784;BME280;57054;51.978;4.498;2023-02-23T03:51:08;101352.03;;;7.29;100.00
69784;BME280;57054;51.978;4.498;2023-02-23T03:54:00;101362.44;;;7.29;100.00
69784;BME280;57054;51.978;4.498;2023-02-23T03:56:50;101369.38;;;7.29;100.00
69784;BME280;57054;51.978;4.498;2023-02-23T03:59:40;101362.44;;;7.29;100.00
69784;BME280;57054;51.978;4.498;2023-02-23T04:02:27;101365.06;;;7.29;100.00
69784;BME280;57054;51.978;4.498;2023-02-23T04:05:17;101361.56;;;7.29;100.00
69784;BME280;57054;51.978;4.498;2023-02-23T04:08:03;101364.16;;;7.29;100.00
69784;BME280;57054;51.978;4.498;2023-02-23T04:10:55;101371.97;;;7.30;100.00
69784;BME280;57054;51.978;4.498;2023-02-23T04:13:44;101364.16;;;7.29;100.00
69784;BME280;57054;51.978;4.498;2023-02-23T04:16:12;101366.78;;;7.29;100.00
69784;BME280;57054;51.978;4.498;2023-02-23T04:18:38;101368.53;;;7.28;100.00
69784;BME280;57054;51.978;4.498;2023-02-23T04:21:05;101371.97;;;7.29;100.00
69784;BME280;57054;51.978;4.498;2023-02-23T04:23:31;101368.53;;;7.28;100.00
69784;BME280;57054;51.978;4.498;2023-02-23T04:25:57;101370.28;;;7.28;100.00
69784;BME280;57054;51.978;4.498;2023-02-23T04:28:24;101373.75;;;7.28;100.00
69784;BME280;57054;51.978;4.498;2023-02-23T04:30:50;101378.09;;;7.28;100.00
69784;BME280;57054;51.978;4.498;2023-02-23T04:33:17;101372.88;;;7.28;100.00
69784;BME280;57054;51.978;4.498;2023-02-23T04:35:42;101378.09;;;7.28;100.00
69784;BME280;57054;51.978;4.498;2023-02-23T04:38:08;101370.28;;;7.28;100.00
69784;BME280;57054;51.978;4.498;2023-02-23T04:40:33;101370.28;;;7.28;100.00
69784;BME280;57054;51.978;4.498;2023-02-23T04:42:59;101377.22;;;7.27;100.00
69784;BME280;57054;51.978;4.498;2023-02-23T04:45:25;101378.09;;;7.28;100.00
69784;BME280;57054;51.978;4.498;2023-02-23T04:47:50;101385.03;;;7.27;100.00
69784;BME280;57054;51.978;4.498;2023-02-23T04:50:17;101381.56;;;7.27;100.00
69784;BME280;57054;51.978;4.498;2023-02-23T04:52:43;101377.22;;;7.27;100.00
69784;BME280;57054;51.978;4.498;2023-02-23T04:55:16;101385.03;;;7.27;100.00
69784;BME280;57054;51.978;4.498;2023-02-23T04:57:42;101389.41;;;7.27;100.00
69784;BME280;57054;51.978;4.498;2023-02-23T05:00:08;101390.31;;;7.26;100.00
69784;BME280;57054;51.978;4.498;2023-02-23T05:02:33;101391.16;;;7.25;100.00
69784;BME280;57054;51.978;4.498;2023-02-23T05:04:59;101391.16;;;7.26;100.00
69784;BME280;57054;51.978;4.498;2023-02-23T05:07:24;101391.16;;;7.25;100.00
69784;BME280;57054;51.978;4.498;2023-02-23T05:09:49;101403.34;;;7.24;100.00
69784;BME280;57054;51.978;4.498;2023-02-23T05:12:15;101411.16;;;7.24;100.00
69784;BME280;57054;51.978;4.498;2023-02-23T05:14:40;101405.06;;;7.24;100.00
69784;BME280;57054;51.978;4.498;2023-02-23T05:17:06;101410.34;;;7.21;100.00
69784;BME280;57054;51.978;4.498;2023-02-23T05:19:32;101409.44;;;7.22;100.00
69784;BME280;57054;51.978;4.498;2023-02-23T05:21:58;101419.03;;;7.21;100.00
69784;BME280;57054;51.978;4.498;2023-02-23T05:24:23;101417.28;;;7.20;100.00
69784;BME280;57054;51.978;4.498;2023-02-23T05:26:50;101414.69;;;7.20;100.00
69784;BME280;57054;51.978;4.498;2023-02-23T05:29:15;101415.56;;;7.21;100.00
69784;BME280;57054;51.978;4.498;2023-02-23T05:31:41;101419.91;;;7.20;100.00
69784;BME280;57054;51.978;4.498;2023-02-23T05:34:06;101417.28;;;7.20;100.00
69784;BME280;57054;51.978;4.498;2023-02-23T05:36:31;101421.66;;;7.20;100.00
69784;BME280;57054;51.978;4.498;2023-02-23T05:38:57;101425.16;;;7.19;100.00
69784;BME280;57054;51.978;4.498;2023-02-23T05:41:22;101419.09;;;7.17;100.00
69784;BME280;57054;51.978;4.498;2023-02-23T05:43:49;101425.19;;;7.17;100.00
69784;BME280;57054;51.978;4.498;2023-02-23T05:46:21;101425.19;;;7.16;100.00
69784;BME280;57054;51.978;4.498;2023-02-23T05:48:47;101422.59;;;7.16;100.00
69784;BME280;57054;51.978;4.498;2023-02-23T05:51:14;101426.06;;;7.15;100.00
69784;BME280;57054;51.978;4.498;2023-02-23T05:53:40;101424.38;;;7.14;100.00
69784;BME280;57054;51.978;4.498;2023-02-23T05:56:06;101420.94;;;7.11;100.00
69784;BME280;57054;51.978;4.498;2023-02-23T05:58:32;101423.53;;;7.11;100.00
69784;BME280;57054;51.978;4.498;2023-02-23T06:00:58;101424.41;;;7.10;100.00
69784;BME280;57054;51.978;4.498;2023-02-23T06:03:23;101426.16;;;7.10;100.00
69784;BME280;57054;51.978;4.498;2023-02-23T06:05:51;101424.44;;;7.09;100.00
69784;BME280;57054;51.978;4.498;2023-02-23T06:08:16;101425.34;;;7.08;100.00
69784;BME280;57054;51.978;4.498;2023-02-23T06:10:42;101433.16;;;7.08;100.00
69784;BME280;57054;51.978;4.498;2023-02-23T06:13:07;101433.16;;;7.06;100.00
69784;BME280;57054;51.978;4.498;2023-02-23T06:15:33;101427.13;;;7.06;100.00
69784;BME280;57054;51.978;4.498;2023-02-23T06:17:58;101441.84;;;7.07;100.00
69784;BME280;57054;51.978;4.498;2023-02-23T06:20:23;101436.66;;;7.05;100.00
69784;BME280;57054;51.978;4.498;2023-02-23T06:22:49;101442.75;;;7.04;100.00
69784;BME280;57054;51.978;4.498;2023-02-23T06:25:14;101441.84;;;7.05;100.00
69784;BME280;57054;51.978;4.498;2023-02-23T06:27:40;101447.06;;;7.05;100.00
69784;BME280;57054;51.978;4.498;2023-02-23T06:30:06;101450.56;;;7.04;100.00
69784;BME280;57054;51.978;4.498;2023-02-23T06:32:33;101440.13;;;7.06;100.00
69784;BME280;57054;51.978;4.498;2023-02-23T06:34:58;101447.06;;;7.05;100.00
69784;BME280;57054;51.978;4.498;2023-02-23T06:37:24;101447.94;;;7.06;100.00
69784;BME280;57054;51.978;4.498;2023-02-23T06:39:49;101447.06;;;7.05;100.00
69784;BME280;57054;51.978;4.498;2023-02-23T06:42:15;101450.56;;;7.06;100.00
69784;BME280;57054;51.978;4.498;2023-02-23T06:44:40;101455.75;;;7.06;100.00
69784;BME280;57054;51.978;4.498;2023-02-23T06:47:05;101454.88;;;7.07;100.00
69784;BME280;57054;51.978;4.498;2023-02-23T06:49:31;101454.88;;;7.05;100.00
69784;BME280;57054;51.978;4.498;2023-02-23T06:51:56;101458.38;;;7.06;100.00
69784;BME280;57054;51.978;4.498;2023-02-23T06:54:22;101458.38;;;7.06;100.00
69784;BME280;57054;51.978;4.498;2023-02-23T06:56:48;101463.56;;;7.06;100.00
69784;BME280;57054;51.978;4.498;2023-02-23T06:59:14;101467.88;;;7.07;100.00
69784;BME280;57054;51.978;4.498;2023-02-23T07:01:39;101479.16;;;7.07;100.00
69784;BME280;57054;51.978;4.498;2023-02-23T07:04:06;101481.81;;;7.06;100.00
69784;BME280;57054;51.978;4.498;2023-02-23T07:06:32;101486.13;;;7.07;100.00
69784;BME280;57054;51.978;4.498;2023-02-23T07:08:57;101487.88;;;7.06;100.00
69784;BME280;57054;51.978;4.498;2023-02-23T07:11:23;101496.53;;;7.07;100.00
69784;BME280;57054;51.978;4.498;2023-02-23T07:13:48;101511.28;;;7.08;100.00
69784;BME280;57054;51.978;4.498;2023-02-23T07:16:13;101513.00;;;7.07;100.00
69784;BME280;57054;51.978;4.498;2023-02-23T07:18:40;101523.44;;;7.07;100.00
69784;BME280;57054;51.978;4.498;2023-02-23T07:21:06;101521.72;;;7.06;100.00
69784;BME280;57054;51.978;4.498;2023-02-23T07:23:32;101526.09;;;7.06;100.00
69784;BME280;57054;51.978;4.498;2023-02-23T07:25:57;101530.41;;;7.07;100.00
69784;BME280;57054;51.978;4.498;2023-02-23T07:28:23;101533.91;;;7.06;100.00
69784;BME280;57054;51.978;4.498;2023-02-23T07:30:57;101532.16;;;7.06;100.00
69784;BME280;57054;51.978;4.498;2023-02-23T07:33:23;101536.47;;;7.07;100.00
69784;BME280;57054;51.978;4.498;2023-02-23T07:35:50;101542.53;;;7.08;100.00
69784;BME280;57054;51.978;4.498;2023-02-23T07:38:15;101544.28;;;7.07;100.00
69784;BME280;57054;51.978;4.498;2023-02-23T07:40:41;101546.88;;;7.07;100.00
69784;BME280;57054;51.978;4.498;2023-02-23T07:43:06;101552.09;;;7.07;100.00
69784;BME280;57054;51.978;4.498;2023-02-23T07:45:32;101551.19;;;7.10;100.00
69784;BME280;57054;51.978;4.498;2023-02-23T07:47:58;101548.59;;;7.10;100.00
69784;BME280;57054;51.978;4.498;2023-02-23T07:50:24;101557.25;;;7.10;100.00
69784;BME280;57054;51.978;4.498;2023-02-23T07:52:51;101563.31;;;7.11;100.00
69784;BME280;57054;51.978;4.498;2023-02-23T07:55:16;101558.09;;;7.13;100.00
69784;BME280;57054;51.978;4.498;2023-02-23T07:57:42;101558.97;;;7.13;100.00
69784;BME280;57054;51.978;4.498;2023-02-23T08:00:08;101565.88;;;7.16;100.00
69784;BME280;57054;51.978;4.498;2023-02-23T08:02:33;101568.50;;;7.14;100.00
69784;BME280;57054;51.978;4.498;2023-02-23T08:04:59;101574.56;;;7.15;100.00
69784;BME280;57054;51.978;4.498;2023-02-23T08:07:24;101573.69;;;7.14;100.00
69784;BME280;57054;51.978;4.498;2023-02-23T08:09:50;101571.09;;;7.14;100.00
69784;BME280;57054;51.978;4.498;2023-02-23T08:12:16;101576.28;;;7.16;100.00
69784;BME280;57054;51.978;4.498;2023-02-23T08:14:42;101583.19;;;7.17;100.00
69784;BME280;57054;51.978;4.498;2023-02-23T08:17:08;101585.78;;;7.18;100.00
69784;BME280;57054;51.978;4.498;2023-02-23T08:19:33;101591.00;;;7.18;100.00
69784;BME280;57054;51.978;4.498;2023-02-23T08:21:59;101595.34;;;7.18;100.00
69784;BME280;57054;51.978;4.498;2023-02-23T08:24:25;101592.75;;;7.18;100.00
69784;BME280;57054;51.978;4.498;2023-02-23T08:26:51;101591.88;;;7.19;100.00
69784;BME280;57054;51.978;4.498;2023-02-23T08:29:17;101585.78;;;7.18;100.00
69784;BME280;57054;51.978;4.498;2023-02-23T08:31:42;101595.34;;;7.18;100.00
69784;BME280;57054;51.978;4.498;2023-02-23T08:34:08;101596.22;;;7.17;100.00
69784;BME280;57054;51.978;4.498;2023-02-23T08:36:34;101599.72;;;7.17;100.00
69784;BME280;57054;51.978;4.498;2023-02-23T08:38:59;101600.56;;;7.18;100.00
69784;BME280;57054;51.978;4.498;2023-02-23T08:41:25;101604.94;;;7.17;100.00
69784;BME280;57054;51.978;4.498;2023-02-23T08:43:52;101606.66;;;7.17;100.00
69784;BME280;57054;51.978;4.498;2023-02-23T08:46:17;101611.84;;;7.17;100.00
69784;BME280;57054;51.978;4.498;2023-02-23T08:48:45;101621.44;;;7.16;100.00
69784;BME280;57054;51.978;4.498;2023-02-23T08:51:11;101618.00;;;7.14;100.00
69784;BME280;57054;51.978;4.498;2023-02-23T08:53:37;101622.34;;;7.15;100.00
69784;BME280;57054;51.978;4.498;2023-02-23T08:56:05;101622.34;;;7.15;100.00
69784;BME280;57054;51.978;4.498;2023-02-23T08:58:31;101618.84;;;7.15;100.00
69784;BME280;57054;51.978;4.498;2023-02-23T09:00:58;101621.44;;;7.15;100.00
69784;BME280;57054;51.978;4.498;2023-02-23T09:03:24;101631.00;;;7.16;100.00
69784;BME280;57054;51.978;4.498;2023-02-23T09:05:51;101626.66;;;7.15;100.00
69784;BME280;57054;51.978;4.498;2023-02-23T09:08:16;101625.81;;;7.14;100.00
69784;BME280;57054;51.978;4.498;2023-02-23T09:10:42;101632.75;;;7.14;100.00
69784;BME280;57054;51.978;4.498;2023-02-23T09:13:11;101626.69;;;7.13;100.00
69784;BME280;57054;51.978;4.498;2023-02-23T09:15:37;101633.63;;;7.13;100.00
69784;BME280;57054;51.978;4.498;2023-02-23T09:18:04;101638.81;;;7.14;100.00
69784;BME280;57054;51.978;4.498;2023-02-23T09:20:30;101644.03;;;7.16;100.00
69784;BME280;57054;51.978;4.498;2023-02-23T09:22:55;101650.94;;;7.17;100.00
69784;BME280;57054;51.978;4.498;2023-02-23T09:25:21;101658.72;;;7.18;100.00
69784;BME280;57054;51.978;4.498;2023-02-23T09:27:51;101654.44;;;7.17;100.00
69784;BME280;57054;51.978;4.498;2023-02-23T09:30:18;101653.53;;;7.18;100.00
69784;BME280;57054;51.978;4.498;2023-02-23T09:32:54;101651.81;;;7.17;100.00
69784;BME280;57054;51.978;4.498;2023-02-23T09:35:22;101652.66;;;7.19;100.00
69784;BME280;57054;51.978;4.498;2023-02-23T09:37:53;101657.00;;;7.19;100.00
69784;BME280;57054;51.978;4.498;2023-02-23T09:40:22;101650.91;;;7.20;100.00
69784;BME280;57054;51.978;4.498;2023-02-23T09:42:59;101648.25;;;7.23;100.00
69784;BME280;57054;51.978;4.498;2023-02-23T09:45:42;101650.88;;;7.23;100.00
69784;BME280;57054;51.978;4.498;2023-02-23T09:48:15;101656.06;;;7.24;100.00
69784;BME280;57054;51.978;4.498;2023-02-23T09:50:52;101659.53;;;7.25;100.00
69784;BME280;57054;51.978;4.498;2023-02-23T09:55:53;101652.56;;;7.24;100.00
69784;BME280;57054;51.978;4.498;2023-02-23T09:58:25;101658.66;;;7.24;100.00
69784;BME280;57054;51.978;4.498;2023-02-23T10:04:07;101656.09;;;7.21;100.00
69784;BME280;57054;51.978;4.498;2023-02-23T10:06:35;101656.97;;;7.20;100.00
69784;BME280;57054;51.978;4.498;2023-02-23T10:09:17;101661.31;;;7.20;100.00
69784;BME280;57054;51.978;4.498;2023-02-23T10:11:51;101663.94;;;7.20;100.00
69784;BME280;57054;51.978;4.498;2023-02-23T10:15:09;101663.91;;;7.23;100.00
69784;BME280;57054;51.978;4.498;2023-02-23T10:20:31;101667.31;;;7.26;100.00
69784;BME280;57054;51.978;4.498;2023-02-23T10:23:02;101662.97;;;7.27;100.00
69784;BME280;57054;51.978;4.498;2023-02-23T10:25:34;101672.53;;;7.28;100.00
69784;BME280;57054;51.978;4.498;2023-02-23T10:28:01;101670.78;;;7.28;100.00
69784;BME280;57054;51.978;4.498;2023-02-23T10:30:29;101671.63;;;7.29;100.00
69784;BME280;57054;51.978;4.498;2023-02-23T10:33:13;101675.94;;;7.32;100.00
69784;BME280;57054;51.978;4.498;2023-02-23T10:35:42;101675.03;;;7.33;100.00
69784;BME280;57054;51.978;4.498;2023-02-23T10:38:16;101685.44;;;7.34;100.00
69784;BME280;57054;51.978;4.498;2023-02-23T10:40:45;101677.63;;;7.36;100.00
69784;BME280;57054;51.978;4.498;2023-02-23T10:43:13;101681.94;;;7.37;100.00
69784;BME280;57054;51.978;4.498;2023-02-23T10:45:44;101690.63;;;7.37;100.00
69784;BME280;57054;51.978;4.498;2023-02-23T10:48:20;101682.81;;;7.37;100.00
69784;BME280;57054;51.978;4.498;2023-02-23T10:50:49;101681.06;;;7.38;100.00
69784;BME280;57054;51.978;4.498;2023-02-23T10:53:25;101678.47;;;7.38;100.00
69784;BME280;57054;51.978;4.498;2023-02-23T10:56:11;101681.06;;;7.38;100.00
69784;BME280;57054;51.978;4.498;2023-02-23T10:58:43;101690.63;;;7.39;100.00
69784;BME280;57054;51.978;4.498;2023-02-23T11:01:11;101692.34;;;7.37;100.00
69784;BME280;57054;51.978;4.498;2023-02-23T11:03:41;101695.84;;;7.37;100.00
69784;BME280;57054;51.978;4.498;2023-02-23T11:08:51;101703.69;;;7.36;100.00
69784;BME280;57054;51.978;4.498;2023-02-23T11:11:24;101692.41;;;7.35;100.00
69784;BME280;57054;51.978;4.498;2023-02-23T11:13:50;101697.56;;;7.37;100.00
69784;BME280;57054;51.978;4.498;2023-02-23T11:16:19;101704.53;;;7.36;100.00
69784;BME280;57054;51.978;4.498;2023-02-23T11:19:03;101704.53;;;7.36;100.00
69784;BME280;57054;51.978;4.498;2023-02-23T11:24:02;101702.81;;;7.35;100.00
69784;BME280;57054;51.978;4.498;2023-02-23T11:26:39;101701.94;;;7.36;100.00
69784;BME280;57054;51.978;4.498;2023-02-23T11:31:56;101696.69;;;7.38;100.00
69784;BME280;57054;51.978;4.498;2023-02-23T11:34:33;101691.44;;;7.41;100.00
69784;BME280;57054;51.978;4.498;2023-02-23T11:37:04;101687.94;;;7.43;100.00
69784;BME280;57054;51.978;4.498;2023-02-23T11:39:30;101689.66;;;7.44;100.00
69784;BME280;57054;51.978;4.498;2023-02-23T11:42:15;101679.25;;;7.44;100.00
69784;BME280;57054;51.978;4.498;2023-02-23T11:44:42;101685.31;;;7.45;100.00
69784;BME280;57054;51.978;4.498;2023-02-23T11:47:16;101692.25;;;7.46;100.00
69784;BME280;57054;51.978;4.498;2023-02-23T11:49:44;101697.41;;;7.47;100.00
69784;BME280;57054;51.978;4.498;2023-02-23T11:52:17;101694.78;;;7.49;100.00
69784;BME280;57054;51.978;4.498;2023-02-23T11:54:55;101692.16;;;7.50;100.00
69784;BME280;57054;51.978;4.498;2023-02-23T11:57:24;101687.78;;;7.53;100.00
69784;BME280;57054;51.978;4.498;2023-02-23T11:59:51;101683.47;;;7.52;100.00
69784;BME280;57054;51.978;4.498;2023-02-23T12:02:23;101693.03;;;7.51;100.00
69784;BME280;57054;51.978;4.498;2023-02-23T12:10:27;101688.63;;;7.55;100.00
69784;BME280;57054;51.978;4.498;2023-02-23T12:13:25;101693.81;;;7.56;100.00
69784;BME280;57054;51.978;4.498;2023-02-23T12:15:59;101686.00;;;7.56;100.00
69784;BME280;57054;51.978;4.498;2023-02-23T12:23:39;101692.94;;;7.59;100.00
69784;BME280;57054;51.978;4.498;2023-02-23T12:26:12;101687.69;;;7.60;100.00
69784;BME280;57054;51.978;4.498;2023-02-23T12:34:31;101684.16;;;7.64;100.00
69784;BME280;57054;51.978;4.498;2023-02-23T12:37:08;101682.38;;;7.66;100.00
69784;BME280;57054;51.978;4.498;2023-02-23T12:39:42;101690.19;;;7.68;100.00
69784;BME280;57054;51.978;4.498;2023-02-23T12:45:02;101680.59;;;7.72;100.00
69784;BME280;57054;51.978;4.498;2023-02-23T12:47:34;101684.88;;;7.73;100.00
69784;BME280;57054;51.978;4.498;2023-02-23T12:50:05;101684.88;;;7.73;100.00
69784;BME280;57054;51.978;4.498;2023-02-23T12:52:47;101679.69;;;7.73;100.00
69784;BME280;57054;51.978;4.498;2023-02-23T12:55:15;101689.25;;;7.72;100.00
69784;BME280;57054;51.978;4.498;2023-02-23T13:06:00;101693.63;;;7.72;100.00
69784;BME280;57054;51.978;4.498;2023-02-23T13:14:24;101689.22;;;7.75;100.00
69784;BME280;57054;51.978;4.498;2023-02-23T13:17:07;101684.00;;;7.75;100.00
69784;BME280;57054;51.978;4.498;2023-02-23T13:19:47;101682.22;;;7.77;100.00
69784;BME280;57054;51.978;4.498;2023-02-23T13:25:06;101679.63;;;7.77;100.00
69784;BME280;57054;51.978;4.498;2023-02-23T13:27:46;101677.88;;;7.78;100.00
69784;BME280;57054;51.978;4.498;2023-02-23T13:30:13;101684.81;;;7.79;100.00
69784;BME280;57054;51.978;4.498;2023-02-23T13:32:40;101681.38;;;7.77;100.00
69784;BME280;57054;51.978;4.498;2023-02-23T13:35:12;101679.63;;;7.77;100.00
69784;BME280;57054;51.978;4.498;2023-02-23T13:37:54;101675.28;;;7.75;100.00
69784;BME280;57054;51.978;4.498;2023-02-23T13:40:45;101677.06;;;7.74;100.00
69784;BME280;57054;51.978;4.498;2023-02-23T13:43:36;101673.56;;;7.75;100.00
69784;BME280;57054;51.978;4.498;2023-02-23T13:48:58;101684.00;;;7.75;100.00
69784;BME280;57054;51.978;4.498;2023-02-23T13:51:38;101677.91;;;7.75;100.00
69784;BME280;57054;51.978;4.498;2023-02-23T13:56:45;101686.59;;;7.77;100.00
69784;BME280;57054;51.978;4.498;2023-02-23T13:59:20;101689.22;;;7.75;100.00
69784;BME280;57054;51.978;4.498;2023-02-23T14:01:48;101684.88;;;7.74;100.00
69784;BME280;57054;51.978;4.498;2023-02-23T14:04:23;101677.06;;;7.74;100.00
69784;BME280;57054;51.978;4.498;2023-02-23T14:09:47;101679.63;;;7.76;100.00
69784;BME280;57054;51.978;4.498;2023-02-23T14:12:23;101682.25;;;7.76;100.00
69784;BME280;57054;51.978;4.498;2023-02-23T14:14:48;101680.50;;;7.76;100.00
69784;BME280;57054;51.978;4.498;2023-02-23T14:22:26;101692.66;;;7.77;100.00
69784;BME280;57054;51.978;4.498;2023-02-23T14:28:01;101684.84;;;7.77;100.00
69784;BME280;57054;51.978;4.498;2023-02-23T14:30:45;101681.38;;;7.77;100.00
69784;BME280;57054;51.978;4.498;2023-02-23T14:39:17;101683.06;;;7.79;100.00
69784;BME280;57054;51.978;4.498;2023-02-23T14:41:54;101688.25;;;7.81;100.00
69784;BME280;57054;51.978;4.498;2023-02-23T14:44:35;101681.31;;;7.80;100.00
69784;BME280;57054;51.978;4.498;2023-02-23T14:47:10;101682.16;;;7.80;100.00
69784;BME280;57054;51.978;4.498;2023-02-23T14:49:42;101683.06;;;7.79;100.00
69784;BME280;57054;51.978;4.498;2023-02-23T14:52:15;101688.28;;;7.79;100.00
69784;BME280;57054;51.978;4.498;2023-02-23T14:54:44;101682.22;;;7.79;100.00
69784;BME280;57054;51.978;4.498;2023-02-23T14:57:18;101683.91;;;7.80;100.00
69784;BME280;57054;51.978;4.498;2023-02-23T14:59:44;101686.50;;;7.81;100.00
69784;BME280;57054;51.978;4.498;2023-02-23T15:02:31;101690.84;;;7.82;100.00
69784;BME280;57054;51.978;4.498;2023-02-23T15:04:56;101682.13;;;7.82;100.00
69784;BME280;57054;51.978;4.498;2023-02-23T15:07:38;101682.22;;;7.79;100.00
69784;BME280;57054;51.978;4.498;2023-02-23T15:10:14;101692.63;;;7.79;100.00